Time;durP1;ratioP1;P1;durP2;ratioP2;P2;SDS_P1;SDS_P2;PMS_P1;PMS_P2;Temp;Humidity;BMP_temperature;BMP_pressure;BME280_temperature;BME280_humidity;BME280_pressure;Samples;Min_cycle;Max_cycle;Signal;HPM_P1;HPM_P2
2022/03/26 00:00:16;;;;;;;32.05;19.38;;;11.50;74.20;;;;;;5035086;28;20071;-83
2022/03/26 00:02:46;;;;;;;36.05;19.05;;;11.70;72.90;;;;;;5034871;28;20037;-83
2022/03/26 00:05:12;;;;;;;31.13;19.02;;;11.80;73.00;;;;;;5034642;28;20405;-83
2022/03/26 00:07:38;;;;;;;30.67;19.77;;;11.70;72.80;;;;;;5034946;28;20037;-78
2022/03/26 00:10:05;;;;;;;31.90;18.25;;;11.80;72.40;;;;;;5034950;28;20049;-75
2022/03/26 00:12:31;;;;;;;32.67;18.33;;;11.80;72.80;;;;;;5035050;28;20061;-83
2022/03/26 00:14:58;;;;;;;33.60;18.42;;;12.00;72.00;;;;;;5034900;28;20099;-83
2022/03/26 00:17:25;;;;;;;32.50;19.40;;;11.70;72.30;;;;;;5034651;28;20037;-79
2022/03/26 00:19:51;;;;;;;34.97;20.83;;;11.50;72.70;;;;;;5034547;28;20041;-83
2022/03/26 00:22:17;;;;;;;38.47;19.88;;;11.60;72.90;;;;;;5034765;28;20033;-83
2022/03/26 00:24:43;;;;;;;35.00;20.52;;;11.60;72.40;;;;;;5034781;28;20412;-83
2022/03/26 00:27:09;;;;;;;33.22;19.00;;;11.60;73.20;;;;;;5034542;28;20052;-74
2022/03/26 00:29:35;;;;;;;31.73;19.60;;;11.10;75.20;;;;;;5033909;28;20041;-82
2022/03/26 00:32:03;;;;;;;28.27;18.45;;;10.80;76.50;;;;;;5034440;28;20041;-72
2022/03/26 00:34:29;;;;;;;30.98;19.65;;;10.70;76.60;;;;;;5034399;28;20043;-75
2022/03/26 00:36:55;;;;;;;37.60;18.95;;;10.70;76.00;;;;;;5034341;28;20041;-77
2022/03/26 00:39:21;;;;;;;33.50;19.35;;;10.80;76.20;;;;;;5016403;28;20045;-82
2022/03/26 00:41:46;;;;;;;36.85;20.83;;;10.90;75.90;;;;;;5033463;28;20563;-83
2022/03/26 00:44:12;;;;;;;39.78;21.00;;;10.90;76.10;;;;;;5036363;28;20159;-81
2022/03/26 00:46:38;;;;;;;37.72;21.15;;;11.00;74.60;;;;;;5036957;28;20052;-80
2022/03/26 00:49:04;;;;;;;34.92;19.23;;;11.10;75.50;;;;;;5032799;28;20052;-72
2022/03/26 00:51:30;;;;;;;31.75;18.65;;;11.10;74.60;;;;;;5031485;28;20520;-76
2022/03/26 00:53:56;;;;;;;33.72;20.10;;;10.70;75.50;;;;;;5040187;28;20038;-83
2022/03/26 00:56:21;;;;;;;33.45;19.85;;;10.70;75.50;;;;;;5033484;28;20129;-82
2022/03/26 00:58:47;;;;;;;30.05;19.17;;;10.70;75.20;;;;;;5033530;28;20041;-80
2022/03/26 01:01:13;;;;;;;33.08;19.08;;;10.60;75.30;;;;;;5024131;28;20060;-79
2022/03/26 01:03:39;;;;;;;34.13;19.27;;;10.50;75.60;;;;;;5033118;28;20041;-79
2022/03/26 01:06:05;;;;;;;33.85;19.95;;;10.60;75.00;;;;;;5031785;28;20445;-79
2022/03/26 01:08:31;;;;;;;31.83;18.05;;;10.80;75.10;;;;;;5029907;28;20402;-79
2022/03/26 01:10:58;;;;;;;34.05;20.23;;;10.90;75.00;;;;;;5033009;28;20034;-81
2022/03/26 01:13:25;;;;;;;30.83;18.90;;;11.00;74.60;;;;;;5034588;28;20040;-79
2022/03/26 01:15:51;;;;;;;31.13;19.95;;;10.70;75.60;;;;;;5033107;28;20527;-73
2022/03/26 01:18:18;;;;;;;30.90;18.15;;;10.60;76.30;;;;;;5032419;28;20143;-79
2022/03/26 01:20:44;;;;;;;35.17;18.80;;;10.50;76.70;;;;;;5032220;28;20048;-80
2022/03/26 01:23:09;;;;;;;35.58;19.35;;;10.30;77.50;;;;;;5032767;28;20409;-80
2022/03/26 01:25:36;;;;;;;37.38;19.30;;;10.00;77.70;;;;;;5033721;28;20509;-80
2022/03/26 01:28:02;;;;;;;28.02;18.20;;;10.30;76.30;;;;;;5033578;28;20045;-81
2022/03/26 01:30:28;;;;;;;33.40;20.17;;;10.40;76.30;;;;;;5033109;28;20046;-78
2022/03/26 01:32:55;;;;;;;31.27;18.50;;;10.20;76.70;;;;;;5032100;28;20467;-73
2022/03/26 01:35:22;;;;;;;34.58;19.65;;;10.00;77.30;;;;;;5032159;28;20512;-80
2022/03/26 01:37:48;;;;;;;32.28;19.33;;;9.90;76.90;;;;;;5032536;28;20404;-75
2022/03/26 01:40:14;;;;;;;30.02;18.98;;;10.00;76.60;;;;;;5029144;28;20033;-80
2022/03/26 01:42:42;;;;;;;32.25;19.27;;;10.10;76.60;;;;;;5033905;28;20037;-81
2022/03/26 01:45:12;;;;;;;33.83;20.30;;;10.30;75.90;;;;;;5035135;28;20060;-80
2022/03/26 01:47:39;;;;;;;34.15;21.08;;;10.10;76.40;;;;;;5033594;28;20037;-77
2022/03/26 01:50:05;;;;;;;33.15;20.48;;;10.10;76.40;;;;;;5034188;28;20040;-80
2022/03/26 01:52:31;;;;;;;33.85;18.90;;;9.80;77.30;;;;;;5034134;28;20497;-80
2022/03/26 01:54:58;;;;;;;31.75;19.55;;;9.90;77.00;;;;;;5032635;28;20044;-79
2022/03/26 01:57:24;;;;;;;35.05;20.13;;;10.20;76.30;;;;;;5033151;28;20053;-81
2022/03/26 01:59:50;;;;;;;31.60;19.30;;;10.20;76.00;;;;;;5033366;28;20425;-77
2022/03/26 02:02:16;;;;;;;30.42;18.45;;;10.10;76.20;;;;;;5034823;28;20121;-81
2022/03/26 02:04:42;;;;;;;34.15;19.73;;;10.20;75.80;;;;;;5033240;28;20045;-81
2022/03/26 02:07:07;;;;;;;32.60;19.25;;;10.30;75.80;;;;;;5032906;28;20103;-75
2022/03/26 02:09:35;;;;;;;29.13;19.27;;;10.20;76.50;;;;;;5032072;28;20072;-78
2022/03/26 02:12:20;;;;;;;32.28;18.52;;;10.00;77.00;;;;;;5034645;28;20092;-81
2022/03/26 02:14:46;;;;;;;31.50;19.00;;;9.90;76.90;;;;;;5034194;28;20041;-80
2022/03/26 02:17:12;;;;;;;38.88;21.63;;;10.00;76.40;;;;;;5034411;28;20044;-75
2022/03/26 02:19:38;;;;;;;34.90;20.60;;;10.20;76.20;;;;;;5048336;28;20045;-77
2022/03/26 02:22:04;;;;;;;33.42;20.48;;;10.00;76.00;;;;;;5034724;28;20038;-83
2022/03/26 02:24:30;;;;;;;33.83;20.55;;;9.80;76.80;;;;;;5033478;28;20057;-80
2022/03/26 02:26:56;;;;;;;32.85;19.05;;;9.70;77.20;;;;;;5034786;28;20128;-80
2022/03/26 02:29:22;;;;;;;38.28;20.38;;;9.60;77.50;;;;;;5033960;28;20049;-79
2022/03/26 02:31:48;;;;;;;36.03;21.15;;;9.60;77.50;;;;;;5034155;28;20578;-78
2022/03/26 02:34:13;;;;;;;35.45;20.30;;;9.60;77.50;;;;;;5033187;28;20049;-74
2022/03/26 02:36:39;;;;;;;38.05;22.20;;;9.60;77.70;;;;;;5033746;28;20069;-80
2022/03/26 02:39:05;;;;;;;32.42;20.80;;;9.60;77.40;;;;;;5034727;28;20041;-80
2022/03/26 02:41:34;;;;;;;36.95;21.17;;;9.80;77.00;;;;;;5034948;28;20095;-80
2022/03/26 02:44:00;;;;;;;37.25;22.17;;;9.80;76.70;;;;;;5035267;28;20120;-80
2022/03/26 02:46:26;;;;;;;31.15;18.67;;;9.90;77.30;;;;;;5033275;28;20057;-80
2022/03/26 02:48:52;;;;;;;31.55;18.23;;;9.60;77.90;;;;;;5040933;28;20127;-80
2022/03/26 02:51:17;;;;;;;31.55;19.30;;;9.60;77.70;;;;;;5035380;28;20041;-76
2022/03/26 02:53:43;;;;;;;32.80;18.98;;;9.40;78.80;;;;;;5036910;28;20029;-81
2022/03/26 02:56:09;;;;;;;32.50;20.30;;;9.50;78.30;;;;;;5037117;28;20045;-80
2022/03/26 02:58:35;;;;;;;32.00;19.67;;;9.50;78.50;;;;;;5037008;28;20124;-81
2022/03/26 03:01:01;;;;;;;34.75;19.98;;;9.70;78.00;;;;;;5036613;28;20120;-79
2022/03/26 03:03:27;;;;;;;39.33;20.70;;;9.80;77.10;;;;;;5036600;28;20079;-81
2022/03/26 03:05:52;;;;;;;34.58;20.83;;;10.00;76.70;;;;;;5036233;28;20072;-82
2022/03/26 03:08:18;;;;;;;34.10;18.63;;;10.10;76.20;;;;;;5018617;28;20041;-80
2022/03/26 03:10:45;;;;;;;32.97;19.50;;;10.10;77.00;;;;;;5036143;28;20128;-80
2022/03/26 03:13:11;;;;;;;46.20;24.42;;;9.80;78.00;;;;;;5038941;28;20358;-80
2022/03/26 03:15:38;;;;;;;56.30;27.92;;;9.60;78.10;;;;;;5036762;28;20053;-80
2022/03/26 03:18:04;;;;;;;38.88;20.63;;;9.60;78.10;;;;;;5036313;28;20069;-80
2022/03/26 03:20:30;;;;;;;34.70;20.58;;;9.60;77.80;;;;;;5036866;28;20053;-77
2022/03/26 03:22:59;;;;;;;31.42;18.95;;;9.70;78.50;;;;;;5037008;28;20079;-82
2022/03/26 03:25:26;;;;;;;34.22;20.75;;;9.20;79.30;;;;;;5035814;28;20053;-78
2022/03/26 03:27:52;;;;;;;38.42;22.05;;;9.10;79.00;;;;;;5036124;28;20034;-82
2022/03/26 03:30:18;;;;;;;41.15;23.55;;;9.20;79.00;;;;;;5035779;28;20123;-77
2022/03/26 03:32:44;;;;;;;39.33;20.75;;;9.30;78.80;;;;;;5035814;28;20060;-82
2022/03/26 03:35:11;;;;;;;38.58;21.73;;;9.20;79.20;;;;;;5035695;28;20135;-83
2022/03/26 03:37:38;;;;;;;38.15;21.25;;;9.10;79.30;;;;;;5035612;28;20439;-79
2022/03/26 03:40:05;;;;;;;35.65;21.98;;;8.90;80.10;;;;;;5041733;28;20053;-80
2022/03/26 03:42:31;;;;;;;40.33;23.30;;;8.70;80.70;;;;;;5042789;28;20037;-75
2022/03/26 03:44:56;;;;;;;44.80;23.38;;;8.60;80.60;;;;;;5042283;28;20517;-72
2022/03/26 03:47:22;;;;;;;40.03;23.38;;;8.90;79.40;;;;;;5044011;28;20083;-73
2022/03/26 03:49:48;;;;;;;38.85;22.88;;;8.90;79.50;;;;;;5042015;28;20136;-79
2022/03/26 03:52:14;;;;;;;37.92;22.92;;;9.00;79.60;;;;;;5042502;28;20118;-80
2022/03/26 03:54:40;;;;;;;41.47;23.40;;;9.00;80.10;;;;;;5038535;28;20037;-75
2022/03/26 03:57:05;;;;;;;37.72;22.67;;;8.70;80.20;;;;;;5040949;28;20046;-76
2022/03/26 03:59:31;;;;;;;38.00;21.45;;;8.90;79.90;;;;;;5039785;28;20040;-74
2022/03/26 04:01:57;;;;;;;41.25;22.10;;;9.00;80.70;;;;;;5038077;28;20128;-80
2022/03/26 04:04:23;;;;;;;44.58;24.20;;;8.80;80.00;;;;;;5035649;28;20041;-80
2022/03/26 04:06:48;;;;;;;38.72;22.92;;;8.80;80.00;;;;;;5041320;28;20041;-73
2022/03/26 04:09:14;;;;;;;44.00;23.30;;;8.60;80.30;;;;;;5041769;28;20034;-80
2022/03/26 04:11:40;;;;;;;41.10;21.67;;;8.70;80.60;;;;;;5041929;28;20041;-80
2022/03/26 04:14:06;;;;;;;36.25;20.95;;;8.60;81.40;;;;;;5040462;28;20368;-75
2022/03/26 04:16:32;;;;;;;37.50;22.30;;;8.40;81.80;;;;;;5036368;28;20060;-74
2022/03/26 04:18:58;;;;;;;37.83;21.67;;;8.20;82.30;;;;;;5035055;28;20081;-80
2022/03/26 04:21:24;;;;;;;40.22;22.13;;;8.30;81.40;;;;;;5034773;28;20048;-82
2022/03/26 04:23:50;;;;;;;35.70;21.77;;;8.50;81.30;;;;;;5034367;28;20045;-77
2022/03/26 04:26:16;;;;;;;37.65;21.65;;;8.50;81.70;;;;;;5034115;28;20045;-82
2022/03/26 04:28:42;;;;;;;33.58;21.02;;;7.90;82.60;;;;;;5033980;28;20052;-79
2022/03/26 04:31:09;;;;;;;45.00;22.10;;;7.90;83.60;;;;;;5019175;28;20050;-77
2022/03/26 04:33:35;;;;;;;36.50;22.80;;;7.90;83.20;;;;;;5017792;28;20079;-81
2022/03/26 04:36:00;;;;;;;36.55;21.88;;;8.00;83.00;;;;;;5035398;28;20068;-82
2022/03/26 04:38:26;;;;;;;37.28;22.15;;;7.90;82.80;;;;;;5034382;28;20049;-80
2022/03/26 04:40:52;;;;;;;42.33;22.63;;;;;;;;;;5034471;28;20040;-77
2022/03/26 04:43:18;;;;;;;38.72;23.33;;;7.40;83.30;;;;;;5034319;28;20052;-81
2022/03/26 04:45:44;;;;;;;39.15;22.25;;;7.50;83.90;;;;;;5034244;28;20045;-83
2022/03/26 04:48:10;;;;;;;40.80;23.30;;;7.60;84.00;;;;;;5034271;28;20037;-79
2022/03/26 04:50:36;;;;;;;36.05;21.95;;;7.80;84.40;;;;;;5034257;28;20043;-80
2022/03/26 04:53:03;;;;;;;35.88;21.02;;;8.10;88.40;;;;;;5031662;28;20033;-73
2022/03/26 04:55:29;;;;;;;37.33;21.63;;;8.20;81.80;;;;;;5034479;28;20117;-77
2022/03/26 04:57:55;;;;;;;41.45;22.63;;;8.50;81.20;;;;;;5017590;28;20505;-82
2022/03/26 05:00:22;;;;;;;39.30;20.70;;;8.80;80.70;;;;;;5033862;28;20045;-81
2022/03/26 05:02:48;;;;;;;37.47;20.83;;;8.80;80.20;;;;;;5037539;28;20033;-81
2022/03/26 05:05:15;;;;;;;39.15;21.13;;;8.90;80.10;;;;;;5041557;28;20462;-74
2022/03/26 05:07:48;;;;;;;36.22;20.40;;;8.80;80.70;;;;;;5035344;28;20038;-81
2022/03/26 05:10:21;;;;;;;33.05;20.55;;;8.50;81.50;;;;;;5040338;28;20063;-80
2022/03/26 05:12:48;;;;;;;35.03;20.70;;;8.60;80.90;;;;;;5038377;28;20509;-78
2022/03/26 05:15:15;;;;;;;38.28;21.05;;;8.70;80.70;;;;;;5034918;28;20037;-76
2022/03/26 05:17:41;;;;;;;37.55;21.35;;;8.60;80.80;;;;;;5036245;28;20132;-80
2022/03/26 05:20:09;;;;;;;40.63;21.02;;;8.60;80.60;;;;;;5037016;28;20412;-81
2022/03/26 05:22:36;;;;;;;34.30;20.20;;;8.70;80.60;;;;;;5038600;28;20103;-79
2022/03/26 05:25:02;;;;;;;35.00;21.15;;;8.60;81.00;;;;;;5035473;28;20056;-81
2022/03/26 05:27:28;;;;;;;39.47;21.73;;;8.30;81.50;;;;;;5039415;28;20139;-79
2022/03/26 05:29:56;;;;;;;38.20;21.38;;;8.30;81.70;;;;;;5041120;28;20065;-80
2022/03/26 05:32:22;;;;;;;39.60;21.25;;;8.40;81.50;;;;;;5042023;28;20049;-79
2022/03/26 05:34:50;;;;;;;38.80;21.05;;;8.50;81.10;;;;;;5042618;28;20044;-76
2022/03/26 05:37:16;;;;;;;32.13;18.83;;;8.50;81.00;;;;;;5040394;28;20091;-76
2022/03/26 05:39:42;;;;;;;38.42;20.20;;;8.60;80.90;;;;;;5033271;28;20047;-82
2022/03/26 05:42:09;;;;;;;36.10;19.90;;;8.70;80.70;;;;;;5033229;28;20139;-74
2022/03/26 05:44:35;;;;;;;35.97;20.00;;;8.80;80.50;;;;;;5033897;28;20064;-80
2022/03/26 05:47:01;;;;;;;35.45;20.73;;;8.60;80.70;;;;;;5033433;28;20049;-82
2022/03/26 05:49:27;;;;;;;36.50;19.45;;;8.30;81.60;;;;;;5046341;28;20041;-81
2022/03/26 05:51:53;;;;;;;35.97;20.30;;;8.10;82.30;;;;;;5036808;28;20044;-79
2022/03/26 05:54:19;;;;;;;40.40;21.48;;;8.10;82.70;;;;;;5056560;28;20069;-81
2022/03/26 05:56:54;;;;;;;33.35;19.25;;;8.30;82.40;;;;;;5055825;28;20045;-80
2022/03/26 05:59:23;;;;;;;36.75;19.50;;;8.30;82.90;;;;;;5056104;28;20063;-81
2022/03/26 06:01:49;;;;;;;36.95;20.77;;;8.10;84.10;;;;;;5052741;28;20531;-72
2022/03/26 06:04:16;;;;;;;37.75;20.90;;;7.90;84.20;;;;;;5052780;28;20041;-81
2022/03/26 06:06:42;;;;;;;35.88;20.67;;;8.10;83.50;;;;;;5052826;28;20179;-80
2022/03/26 06:09:09;;;;;;;38.28;20.00;;;8.30;82.90;;;;;;5054064;28;20040;-73
2022/03/26 06:11:35;;;;;;;33.97;19.50;;;8.40;82.40;;;;;;5056088;28;20147;-80
2022/03/26 06:14:00;;;;;;;38.00;20.50;;;8.30;83.50;;;;;;5049018;28;20060;-80
2022/03/26 06:16:26;;;;;;;39.13;20.20;;;8.20;84.80;;;;;;5034375;28;20052;-76
2022/03/26 06:18:52;;;;;;;48.53;20.25;;;8.10;83.40;;;;;;5033563;28;20065;-82
2022/03/26 06:21:18;;;;;;;39.75;20.85;;;8.40;82.40;;;;;;5034347;28;20444;-82
2022/03/26 06:23:44;;;;;;;37.50;20.55;;;8.70;81.70;;;;;;5032873;28;20037;-79
2022/03/26 06:26:10;;;;;;;34.33;19.85;;;8.80;81.10;;;;;;5032733;28;20064;-83
2022/03/26 06:28:37;;;;;;;38.08;20.58;;;8.70;82.80;;;;;;5037058;28;20088;-82
2022/03/26 06:31:03;;;;;;;35.40;21.45;;;8.60;83.80;;;;;;5036844;28;20493;-78
2022/03/26 06:33:29;;;;;;;32.22;19.98;;;8.80;83.00;;;;;;5037950;28;20029;-81
2022/03/26 06:35:55;;;;;;;31.13;19.80;;;9.10;83.10;;;;;;5037043;28;20091;-78
2022/03/26 06:38:21;;;;;;;33.38;20.05;;;9.50;82.80;;;;;;5037211;28;20041;-79
2022/03/26 06:40:47;;;;;;;37.50;20.08;;;9.60;83.60;;;;;;5037813;28;20041;-80
2022/03/26 06:43:12;;;;;;;38.50;20.73;;;9.60;82.50;;;;;;5036521;28;20048;-80
2022/03/26 06:45:40;;;;;;;39.15;21.63;;;9.50;80.90;;;;;;5036219;28;20523;-79
2022/03/26 06:48:06;;;;;;;38.90;21.65;;;9.70;81.10;;;;;;5036650;28;20489;-83
2022/03/26 06:50:33;;;;;;;36.47;22.17;;;10.00;79.90;;;;;;5018287;28;20045;-81
2022/03/26 06:52:59;;;;;;;39.90;22.40;;;10.30;79.90;;;;;;5036513;28;20563;-80
2022/03/26 06:55:25;;;;;;;37.95;19.77;;;10.60;82.50;;;;;;5018799;28;20068;-75
2022/03/26 06:57:51;;;;;;;47.17;20.23;;;11.00;81.50;;;;;;5036281;28;20036;-80
2022/03/26 07:00:18;;;;;;;32.58;19.63;;;11.20;81.10;;;;;;5036302;28;20029;-79
2022/03/26 07:02:44;;;;;;;39.17;21.52;;;11.40;79.20;;;;;;5018475;28;20130;-79
2022/03/26 07:05:12;;;;;;;39.50;20.92;;;11.40;80.90;;;;;;5036036;28;20522;-79
2022/03/26 07:07:37;;;;;;;31.77;18.73;;;11.70;82.00;;;;;;5036561;28;20155;-79
2022/03/26 07:10:04;;;;;;;34.63;20.25;;;11.90;81.50;;;;;;5038004;28;20117;-75
2022/03/26 07:12:30;;;;;;;35.33;20.85;;;12.10;81.00;;;;;;5035949;28;20041;-79
2022/03/26 07:14:56;;;;;;;38.00;20.92;;;12.30;78.50;;;;;;5036200;28;20072;-82
2022/03/26 07:17:23;;;;;;;39.70;20.70;;;12.60;78.80;;;;;;5031849;28;20045;-79
2022/03/26 07:19:48;;;;;;;39.63;21.67;;;12.40;79.10;;;;;;5036568;28;20069;-74
2022/03/26 07:22:15;;;;;;;35.47;20.60;;;12.50;80.20;;;;;;5036497;28;20115;-78
2022/03/26 07:24:41;;;;;;;33.45;19.77;;;12.60;79.00;;;;;;5036898;28;20049;-79
2022/03/26 07:27:06;;;;;;;33.83;20.13;;;12.70;78.40;;;;;;5037037;28;20056;-72
2022/03/26 07:29:33;;;;;;;38.47;20.05;;;12.70;78.30;;;;;;5039463;28;20045;-79
2022/03/26 07:31:59;;;;;;;33.58;21.00;;;12.70;77.20;;;;;;5037981;28;20531;-77
2022/03/26 07:34:26;;;;;;;30.67;18.80;;;12.50;76.70;;;;;;5036976;28;20042;-79
2022/03/26 07:36:52;;;;;;;33.90;20.75;;;12.60;78.50;;;;;;5036004;28;20045;-78
2022/03/26 07:39:18;;;;;;;33.03;19.38;;;12.90;81.80;;;;;;5035478;28;20049;-77
2022/03/26 07:41:45;;;;;;;37.45;20.60;;;13.40;80.50;;;;;;5035615;28;20041;-76
2022/03/26 07:44:11;;;;;;;33.80;20.73;;;13.30;78.50;;;;;;5035232;28;20150;-77
2022/03/26 07:46:37;;;;;;;32.55;20.38;;;13.00;78.20;;;;;;5041212;28;20056;-76
2022/03/26 07:49:05;;;;;;;35.60;20.40;;;13.30;78.50;;;;;;5033108;28;20049;-73
2022/03/26 07:51:31;;;;;;;35.10;20.95;;;13.60;78.10;;;;;;5033853;28;20033;-79
2022/03/26 07:53:57;;;;;;;33.17;19.70;;;13.70;79.20;;;;;;5033448;28;20037;-78
2022/03/26 07:56:24;;;;;;;31.50;20.08;;;14.00;79.90;;;;;;5037230;28;20164;-81
2022/03/26 07:58:50;;;;;;;36.78;21.80;;;14.00;78.20;;;;;;5037932;28;20068;-80
2022/03/26 08:01:16;;;;;;;28.27;18.45;;;13.80;79.00;;;;;;5038613;28;20080;-79
2022/03/26 08:03:42;;;;;;;26.15;18.23;;;14.00;81.40;;;;;;5035475;28;20037;-77
2022/03/26 08:06:08;;;;;;;31.88;21.13;;;13.80;83.10;;;;;;5032990;28;20103;-82
2022/03/26 08:08:34;;;;;;;38.42;19.35;;;13.90;83.30;;;;;;5032966;28;20030;-74
2022/03/26 08:11:00;;;;;;;33.92;20.35;;;13.90;81.30;;;;;;5036140;28;20042;-82
2022/03/26 08:13:25;;;;;;;29.02;18.48;;;13.80;81.50;;;;;;5032512;28;20033;-79
2022/03/26 08:15:51;;;;;;;42.55;19.88;;;13.90;81.10;;;;;;5033999;28;20034;-80
2022/03/26 08:18:17;;;;;;;31.90;18.70;;;14.00;82.10;;;;;;5023394;28;20030;-79
2022/03/26 08:20:44;;;;;;;34.25;20.45;;;14.30;83.20;;;;;;5036918;28;20049;-78
2022/03/26 08:23:10;;;;;;;34.80;19.73;;;14.20;82.00;;;;;;5037593;28;20037;-79
2022/03/26 08:28:20;;;;;;;32.08;19.13;;;14.40;82.20;;;;;;5033703;28;20036;-80
2022/03/26 08:30:46;;;;;;;31.70;20.33;;;14.30;81.70;;;;;;5032530;28;20045;-75
2022/03/26 08:33:12;;;;;;;30.35;19.63;;;14.30;82.60;;;;;;5033274;28;20041;-79
2022/03/26 08:35:41;;;;;;;35.53;20.67;;;14.40;81.60;;;;;;5032220;28;20049;-78
2022/03/26 08:38:07;;;;;;;29.25;18.95;;;14.00;81.30;;;;;;5031782;28;20041;-79
2022/03/26 08:40:33;;;;;;;37.78;21.83;;;14.10;82.50;;;;;;5031871;28;20386;-73
2022/03/26 08:42:59;;;;;;;37.00;21.58;;;14.10;80.70;;;;;;5031898;28;20041;-76
2022/03/26 08:45:30;;;;;;;38.40;22.38;;;14.30;80.00;;;;;;5035268;28;20063;-80
2022/03/26 08:47:59;;;;;;;40.97;22.05;;;14.10;79.40;;;;;;5022421;28;20056;-79
2022/03/26 08:50:25;;;;;;;36.72;22.55;;;14.60;80.30;;;;;;5017309;28;20060;-78
2022/03/26 08:52:52;;;;;;;37.92;23.13;;;14.70;79.40;;;;;;5032026;28;20045;-80
2022/03/26 08:55:18;;;;;;;34.70;21.67;;;14.90;79.10;;;;;;5013754;28;20421;-79
2022/03/26 08:57:45;;;;;;;41.25;21.42;;;15.10;79.20;;;;;;5031539;28;20056;-78
2022/03/26 09:00:13;;;;;;;36.50;21.13;;;15.70;79.80;;;;;;5013240;28;20080;-78
2022/03/26 09:02:40;;;;;;;36.58;22.17;;;16.00;79.80;;;;;;5031735;28;20037;-79
2022/03/26 09:05:07;;;;;;;43.28;23.33;;;15.80;79.20;;;;;;5013749;28;20460;-78
2022/03/26 09:07:33;;;;;;;39.35;24.35;;;15.70;79.40;;;;;;5031412;28;20033;-75
2022/03/26 09:09:59;;;;;;;47.13;24.50;;;15.50;79.50;;;;;;5041414;28;20805;-77
2022/03/26 09:12:26;;;;;;;50.25;23.70;;;15.50;80.30;;;;;;5038548;28;20041;-81
2022/03/26 09:14:52;;;;;;;45.30;24.05;;;15.60;78.80;;;;;;5039071;28;20608;-78
2022/03/26 09:17:18;;;;;;;40.08;25.58;;;16.10;79.70;;;;;;5031221;28;20128;-76
2022/03/26 09:19:44;;;;;;;42.60;25.05;;;16.00;79.50;;;;;;5030437;28;20069;-78
2022/03/26 09:22:10;;;;;;;39.88;23.00;;;16.00;78.50;;;;;;5030747;28;20072;-74
2022/03/26 09:24:36;;;;;;;36.65;23.00;;;16.30;80.40;;;;;;5030996;28;20041;-73
2022/03/26 09:27:02;;;;;;;44.15;25.95;;;16.30;78.00;;;;;;5030857;28;20106;-72
2022/03/26 09:29:28;;;;;;;41.25;24.23;;;16.20;80.10;;;;;;5012953;28;20549;-72
2022/03/26 09:31:54;;;;;;;43.28;25.05;;;16.60;79.00;;;;;;5030893;28;20033;-78
2022/03/26 09:34:21;;;;;;;39.92;24.05;;;16.50;79.20;;;;;;5030109;28;20029;-77
2022/03/26 09:36:47;;;;;;;42.20;24.80;;;16.70;77.40;;;;;;5012842;28;20408;-79
2022/03/26 09:39:13;;;;;;;39.30;24.83;;;16.40;76.10;;;;;;5029956;28;20036;-78
2022/03/26 09:41:40;;;;;;;72.03;25.85;;;16.40;76.50;;;;;;5030632;28;20037;-76
2022/03/26 09:44:06;;;;;;;44.08;25.67;;;16.60;77.10;;;;;;5029785;28;20037;-75
2022/03/26 09:46:35;;;;;;;40.05;25.45;;;16.70;76.20;;;;;;5032974;28;20442;-72
2022/03/26 09:49:03;;;;;;;46.03;26.08;;;16.50;75.80;;;;;;5010949;28;20128;-74
2022/03/26 09:51:29;;;;;;;43.65;25.98;;;16.80;77.20;;;;;;5011172;28;20132;-75
2022/03/26 09:53:56;;;;;;;40.22;25.58;;;16.60;75.50;;;;;;5010926;28;20037;-76
2022/03/26 09:56:28;;;;;;;42.65;24.17;;;16.80;76.70;;;;;;5011104;28;20578;-75
2022/03/26 09:58:56;;;;;;;41.90;26.02;;;17.10;78.40;;;;;;5011689;28;20555;-73
2022/03/26 10:01:25;;;;;;;32.90;18.52;;;17.40;76.50;;;;;;4993366;28;20046;-77
2022/03/26 10:04:13;;;;;;;40.60;24.55;;;17.60;78.20;;;;;;5011638;28;20081;-77
2022/03/26 10:06:50;;;;;;;46.20;26.42;;;17.40;78.10;;;;;;5015232;28;20416;-77
2022/03/26 10:09:46;;;;;;;45.47;26.65;;;17.30;76.60;;;;;;5029920;28;20041;-78
2022/03/26 10:12:17;;;;;;;39.38;24.23;;;17.30;76.60;;;;;;5016646;28;20064;-78
2022/03/26 10:14:47;;;;;;;41.13;25.20;;;17.30;76.40;;;;;;5029459;28;20049;-77
2022/03/26 10:17:17;;;;;;;42.47;26.80;;;17.50;77.30;;;;;;5029540;28;20048;-78
2022/03/26 10:19:45;;;;;;;44.00;25.90;;;17.60;76.30;;;;;;5030380;28;20040;-75
2022/03/26 10:22:35;;;;;;;43.35;24.20;;;18.30;77.00;;;;;;5029359;28;20382;-77
2022/03/26 10:25:13;;;;;;;45.85;27.00;;;18.20;75.20;;;;;;5030535;28;20048;-72
2022/03/26 10:27:45;;;;;;;42.28;26.13;;;18.20;76.70;;;;;;5025106;28;20049;-77
2022/03/26 10:30:16;;;;;;;42.85;25.63;;;18.10;76.20;;;;;;5029227;28;20037;-79
2022/03/26 10:32:43;;;;;;;;;;;18.40;75.20;;;;;;5030117;28;20045;-77
2022/03/26 10:35:16;;;;;;;41.47;25.80;;;18.20;76.20;;;;;;5028807;28;19908;-75
2022/03/26 10:37:56;;;;;;;45.75;26.73;;;18.30;75.10;;;;;;5026926;28;20037;-77
2022/03/26 10:40:28;;;;;;;45.08;27.90;;;18.20;72.60;;;;;;5027636;28;20630;-77
2022/03/26 10:42:58;;;;;;;40.42;25.33;;;18.50;75.60;;;;;;5030476;28;20034;-78
2022/03/26 10:45:25;;;;;;;45.17;27.70;;;18.50;74.90;;;;;;5031493;28;20053;-76
2022/03/26 10:47:56;;;;;;;38.63;24.50;;;18.40;74.30;;;;;;5029814;28;20100;-78
2022/03/26 10:50:22;;;;;;;;;;;18.50;75.40;;;;;;5030797;28;20044;-78
2022/03/26 10:52:48;;;;;;;41.80;26.08;;;;;;;;;;5030147;28;19908;-77
2022/03/26 10:55:15;;;;;;;43.55;26.00;;;19.00;92.20;;;;;;5029531;28;20042;-73
2022/03/26 10:57:45;;;;;;;44.47;26.65;;;18.30;94.90;;;;;;5029538;28;20624;-78
2022/03/26 11:00:15;;;;;;;44.25;24.75;;;18.10;71.90;;;;;;5027640;28;20033;-78
2022/03/26 11:02:44;;;;;;;43.87;25.87;;;18.20;72.20;;;;;;5030025;28;20048;-77
2022/03/26 11:05:11;;;;;;;45.72;25.55;;;17.80;70.90;;;;;;5012251;28;20134;-76
2022/03/26 11:07:40;;;;;;;43.30;25.63;;;17.90;70.50;;;;;;5029689;28;20049;-76
2022/03/26 11:10:08;;;;;;;43.22;26.80;;;18.00;71.30;;;;;;5027320;28;20088;-77
2022/03/26 11:12:36;;;;;;;40.92;25.45;;;18.40;72.80;;;;;;5030850;28;20033;-77
2022/03/26 11:15:06;;;;;;;38.28;23.50;;;18.50;73.90;;;;;;5028790;28;20049;-72
2022/03/26 11:17:58;;;;;;;42.00;25.90;;;18.80;74.60;;;;;;5033885;28;20041;-73
2022/03/26 11:20:30;;;;;;;44.13;27.33;;;18.80;70.50;;;;;;5032116;28;20084;-79
2022/03/26 11:23:11;;;;;;;44.03;26.48;;;18.70;73.10;;;;;;5034281;28;20389;-79
2022/03/26 11:26:10;;;;;;;46.75;24.35;;;18.90;71.70;;;;;;5031871;28;20053;-80
2022/03/26 11:29:13;;;;;;;43.50;26.00;;;18.30;72.50;;;;;;5032552;28;20098;-79
2022/03/26 11:31:48;;;;;;;48.42;27.42;;;18.10;71.20;;;;;;5010771;28;20492;-79
2022/03/26 11:34:18;;;;;;;42.53;24.92;;;18.40;72.40;;;;;;5035703;28;20057;-81
2022/03/26 11:36:44;;;;;;;46.25;25.50;;;18.20;70.70;;;;;;5035829;28;20037;-80
2022/03/26 11:39:13;;;;;;;44.65;25.27;;;17.80;69.70;;;;;;5035185;28;20048;-77
2022/03/26 11:41:39;;;;;;;38.90;24.77;;;17.70;69.40;;;;;;5033566;28;20585;-78
2022/03/26 11:44:07;;;;;;;42.50;27.00;;;18.20;72.40;;;;;;5029427;28;20037;-80
2022/03/26 11:52:26;;;;;;;40.83;25.98;;;18.60;72.80;;;;;;5037694;28;20056;-81
2022/03/26 11:55:26;;;;;;;43.95;24.77;;;18.50;68.20;;;;;;5033658;28;20069;-80
2022/03/26 11:58:16;;;;;;;38.45;23.75;;;18.30;70.10;;;;;;5033322;28;20112;-83
2022/03/26 12:01:03;;;;;;;37.58;23.52;;;18.50;70.10;;;;;;5034507;28;20120;-80
2022/03/26 12:03:42;;;;;;;38.70;24.50;;;18.60;69.50;;;;;;5034458;28;20084;-78
2022/03/26 12:08:53;;;;;;;38.60;23.20;;;19.20;70.30;;;;;;5024142;28;20063;-78
2022/03/26 12:11:31;;;;;;;41.38;23.30;;;18.70;69.20;;;;;;5044399;28;20044;-76
2022/03/26 12:14:08;;;;;;;36.25;24.15;;;18.60;70.20;;;;;;5049498;28;20048;-77
2022/03/26 12:16:53;;;;;;;38.65;22.50;;;18.70;69.60;;;;;;5052744;28;20468;-77
2022/03/26 12:19:45;;;;;;;40.20;22.63;;;19.00;69.80;;;;;;5052182;28;20044;-76
2022/03/26 12:22:26;;;;;;;33.00;21.38;;;19.60;74.20;;;;;;5037927;28;20037;-72
2022/03/26 12:24:53;;;;;;;38.85;23.85;;;19.60;70.20;;;;;;5032221;28;20055;-75
2022/03/26 12:27:20;;;;;;;42.83;25.15;;;19.00;69.90;;;;;;5040308;28;20147;-74
2022/03/26 12:29:46;;;;;;;44.20;22.77;;;19.00;68.30;;;;;;5042583;28;20041;-74
2022/03/26 12:32:13;;;;;;;40.60;24.33;;;19.50;72.30;;;;;;5042254;28;20056;-75
2022/03/26 12:34:56;;;;;;;41.80;23.17;;;19.40;69.00;;;;;;5042837;28;20405;-75
2022/03/26 12:37:24;;;;;;;37.15;23.00;;;19.80;73.60;;;;;;5038311;28;20037;-75
2022/03/26 12:39:51;;;;;;;47.20;25.27;;;19.50;71.20;;;;;;5043000;28;20570;-77
2022/03/26 12:42:17;;;;;;;39.30;24.38;;;19.30;71.40;;;;;;5038546;28;20052;-76
2022/03/26 12:44:44;;;;;;;42.85;25.60;;;19.60;71.90;;;;;;5037755;28;20473;-76